sensor_id;sensor_type;location;lat;lon;timestamp;P1;durP1;ratioP1;P2;durP2;ratioP2
59189;SDS011;50749;51.636;4.948;2022-12-29T00:01:49;1.00;;;0.60;;
59189;SDS011;50749;51.636;4.948;2022-12-29T00:04:15;1.67;;;1.00;;
59189;SDS011;50749;51.636;4.948;2022-12-29T00:06:41;3.97;;;0.80;;
59189;SDS011;50749;51.636;4.948;2022-12-29T00:09:08;4.15;;;0.80;;
59189;SDS011;50749;51.636;4.948;2022-12-29T00:11:38;3.60;;;0.80;;
59189;SDS011;50749;51.636;4.948;2022-12-29T00:14:04;1.80;;;0.77;;
59189;SDS011;50749;51.636;4.948;2022-12-29T00:16:48;0.63;;;0.50;;
59189;SDS011;50749;51.636;4.948;2022-12-29T00:19:14;1.70;;;1.10;;
59189;SDS011;50749;51.636;4.948;2022-12-29T00:21:59;1.73;;;0.60;;
59189;SDS011;50749;51.636;4.948;2022-12-29T00:24:44;1.05;;;0.70;;
59189;SDS011;50749;51.636;4.948;2022-12-29T00:30:23;0.68;;;0.50;;
59189;SDS011;50749;51.636;4.948;2022-12-29T00:33:17;1.00;;;0.52;;
59189;SDS011;50749;51.636;4.948;2022-12-29T00:36:08;5.05;;;0.73;;
59189;SDS011;50749;51.636;4.948;2022-12-29T00:38:38;1.33;;;0.63;;
59189;SDS011;50749;51.636;4.948;2022-12-29T00:41:26;1.77;;;0.70;;
59189;SDS011;50749;51.636;4.948;2022-12-29T00:44:12;4.83;;;1.33;;
59189;SDS011;50749;51.636;4.948;2022-12-29T00:46:39;3.20;;;0.75;;
59189;SDS011;50749;51.636;4.948;2022-12-29T00:49:07;1.05;;;0.63;;
59189;SDS011;50749;51.636;4.948;2022-12-29T00:51:54;1.05;;;0.63;;
59189;SDS011;50749;51.636;4.948;2022-12-29T00:54:20;1.17;;;0.70;;
59189;SDS011;50749;51.636;4.948;2022-12-29T00:56:47;1.80;;;0.73;;
59189;SDS011;50749;51.636;4.948;2022-12-29T00:59:13;1.15;;;0.60;;
59189;SDS011;50749;51.636;4.948;2022-12-29T01:01:39;2.45;;;0.57;;
59189;SDS011;50749;51.636;4.948;2022-12-29T01:04:05;2.50;;;0.68;;
59189;SDS011;50749;51.636;4.948;2022-12-29T01:06:32;0.93;;;0.63;;
59189;SDS011;50749;51.636;4.948;2022-12-29T01:09:00;1.17;;;0.73;;
59189;SDS011;50749;51.636;4.948;2022-12-29T01:11:44;1.33;;;0.60;;
59189;SDS011;50749;51.636;4.948;2022-12-29T01:14:10;1.13;;;0.60;;
59189;SDS011;50749;51.636;4.948;2022-12-29T01:16:36;2.70;;;0.65;;
59189;SDS011;50749;51.636;4.948;2022-12-29T01:19:02;1.30;;;0.60;;
59189;SDS011;50749;51.636;4.948;2022-12-29T01:21:29;0.88;;;0.50;;
59189;SDS011;50749;51.636;4.948;2022-12-29T01:23:55;1.92;;;0.70;;
59189;SDS011;50749;51.636;4.948;2022-12-29T01:26:21;2.30;;;1.13;;
59189;SDS011;50749;51.636;4.948;2022-12-29T01:28:47;2.97;;;1.30;;
59189;SDS011;50749;51.636;4.948;2022-12-29T01:31:13;2.53;;;1.25;;
59189;SDS011;50749;51.636;4.948;2022-12-29T01:33:40;3.75;;;1.35;;
59189;SDS011;50749;51.636;4.948;2022-12-29T01:36:07;2.05;;;1.10;;
59189;SDS011;50749;51.636;4.948;2022-12-29T01:38:35;2.55;;;1.00;;
59189;SDS011;50749;51.636;4.948;2022-12-29T01:41:02;4.35;;;1.20;;
59189;SDS011;50749;51.636;4.948;2022-12-29T01:51:29;2.65;;;0.90;;
59189;SDS011;50749;51.636;4.948;2022-12-29T01:53:57;1.75;;;1.02;;
59189;SDS011;50749;51.636;4.948;2022-12-29T01:56:24;3.45;;;1.20;;
59189;SDS011;50749;51.636;4.948;2022-12-29T01:58:54;1.42;;;0.80;;
59189;SDS011;50749;51.636;4.948;2022-12-29T02:01:26;1.90;;;0.90;;
59189;SDS011;50749;51.636;4.948;2022-12-29T02:03:51;3.47;;;1.27;;
59189;SDS011;50749;51.636;4.948;2022-12-29T02:06:21;2.58;;;0.95;;
59189;SDS011;50749;51.636;4.948;2022-12-29T02:08:52;1.80;;;0.90;;
59189;SDS011;50749;51.636;4.948;2022-12-29T02:11:20;1.88;;;0.90;;
59189;SDS011;50749;51.636;4.948;2022-12-29T02:13:48;2.05;;;0.90;;
59189;SDS011;50749;51.636;4.948;2022-12-29T02:16:31;2.40;;;1.00;;
59189;SDS011;50749;51.636;4.948;2022-12-29T02:27:40;2.72;;;1.02;;
59189;SDS011;50749;51.636;4.948;2022-12-29T02:33:29;1.10;;;0.73;;
59189;SDS011;50749;51.636;4.948;2022-12-29T02:38:59;2.33;;;0.70;;
59189;SDS011;50749;51.636;4.948;2022-12-29T02:41:34;1.52;;;0.57;;
59189;SDS011;50749;51.636;4.948;2022-12-29T02:44:11;1.27;;;0.57;;
59189;SDS011;50749;51.636;4.948;2022-12-29T02:46:52;1.80;;;0.95;;
59189;SDS011;50749;51.636;4.948;2022-12-29T02:52:14;2.33;;;0.95;;
59189;SDS011;50749;51.636;4.948;2022-12-29T02:54:43;1.90;;;0.90;;
59189;SDS011;50749;51.636;4.948;2022-12-29T02:57:14;1.70;;;0.70;;
59189;SDS011;50749;51.636;4.948;2022-12-29T02:59:46;1.90;;;0.80;;
59189;SDS011;50749;51.636;4.948;2022-12-29T03:02:35;3.70;;;0.85;;
59189;SDS011;50749;51.636;4.948;2022-12-29T03:08:19;1.33;;;0.70;;
59189;SDS011;50749;51.636;4.948;2022-12-29T03:11:04;2.15;;;0.70;;
59189;SDS011;50749;51.636;4.948;2022-12-29T03:16:46;1.63;;;0.60;;
59189;SDS011;50749;51.636;4.948;2022-12-29T03:24:45;1.00;;;0.50;;
59189;SDS011;50749;51.636;4.948;2022-12-29T03:27:18;2.35;;;0.70;;
59189;SDS011;50749;51.636;4.948;2022-12-29T03:29:50;2.10;;;0.88;;
59189;SDS011;50749;51.636;4.948;2022-12-29T03:32:19;1.00;;;0.60;;
59189;SDS011;50749;51.636;4.948;2022-12-29T03:34:47;1.42;;;0.60;;
59189;SDS011;50749;51.636;4.948;2022-12-29T03:37:16;2.05;;;0.60;;
59189;SDS011;50749;51.636;4.948;2022-12-29T03:39:46;2.65;;;0.75;;
59189;SDS011;50749;51.636;4.948;2022-12-29T03:42:13;2.45;;;0.70;;
59189;SDS011;50749;51.636;4.948;2022-12-29T03:44:43;3.10;;;1.10;;
59189;SDS011;50749;51.636;4.948;2022-12-29T03:47:10;0.70;;;0.55;;
59189;SDS011;50749;51.636;4.948;2022-12-29T03:49:36;1.25;;;0.60;;
59189;SDS011;50749;51.636;4.948;2022-12-29T03:52:02;1.52;;;0.60;;
59189;SDS011;50749;51.636;4.948;2022-12-29T03:54:29;2.25;;;0.80;;
59189;SDS011;50749;51.636;4.948;2022-12-29T03:56:55;2.10;;;0.55;;
59189;SDS011;50749;51.636;4.948;2022-12-29T03:59:21;1.10;;;0.60;;
59189;SDS011;50749;51.636;4.948;2022-12-29T04:01:47;1.00;;;0.55;;
59189;SDS011;50749;51.636;4.948;2022-12-29T04:04:13;0.73;;;0.40;;
59189;SDS011;50749;51.636;4.948;2022-12-29T04:06:39;2.60;;;0.57;;
59189;SDS011;50749;51.636;4.948;2022-12-29T04:09:05;1.83;;;0.85;;
59189;SDS011;50749;51.636;4.948;2022-12-29T04:11:31;1.50;;;0.70;;
59189;SDS011;50749;51.636;4.948;2022-12-29T04:13:57;1.33;;;0.55;;
59189;SDS011;50749;51.636;4.948;2022-12-29T04:16:23;1.83;;;0.60;;
59189;SDS011;50749;51.636;4.948;2022-12-29T04:18:48;2.17;;;0.60;;
59189;SDS011;50749;51.636;4.948;2022-12-29T04:21:14;1.17;;;0.50;;
59189;SDS011;50749;51.636;4.948;2022-12-29T04:23:40;0.98;;;0.55;;
59189;SDS011;50749;51.636;4.948;2022-12-29T04:26:06;1.65;;;0.60;;
59189;SDS011;50749;51.636;4.948;2022-12-29T04:28:33;1.27;;;0.43;;
59189;SDS011;50749;51.636;4.948;2022-12-29T04:30:59;1.45;;;0.40;;
59189;SDS011;50749;51.636;4.948;2022-12-29T04:33:25;1.27;;;0.65;;
59189;SDS011;50749;51.636;4.948;2022-12-29T04:35:51;1.95;;;0.65;;
59189;SDS011;50749;51.636;4.948;2022-12-29T04:38:20;1.42;;;0.52;;
59189;SDS011;50749;51.636;4.948;2022-12-29T04:40:48;1.55;;;0.60;;
59189;SDS011;50749;51.636;4.948;2022-12-29T04:43:14;1.48;;;0.50;;
59189;SDS011;50749;51.636;4.948;2022-12-29T04:45:44;1.77;;;0.40;;
59189;SDS011;50749;51.636;4.948;2022-12-29T04:48:11;2.20;;;0.50;;
59189;SDS011;50749;51.636;4.948;2022-12-29T04:50:37;0.88;;;0.50;;
59189;SDS011;50749;51.636;4.948;2022-12-29T04:53:03;1.58;;;0.55;;
59189;SDS011;50749;51.636;4.948;2022-12-29T04:55:29;1.08;;;0.40;;
59189;SDS011;50749;51.636;4.948;2022-12-29T04:57:55;2.70;;;0.55;;
59189;SDS011;50749;51.636;4.948;2022-12-29T05:00:21;2.30;;;0.40;;
59189;SDS011;50749;51.636;4.948;2022-12-29T05:02:47;0.70;;;0.40;;
59189;SDS011;50749;51.636;4.948;2022-12-29T05:05:13;1.55;;;0.40;;
59189;SDS011;50749;51.636;4.948;2022-12-29T05:07:39;2.90;;;0.70;;
59189;SDS011;50749;51.636;4.948;2022-12-29T05:10:05;3.30;;;0.68;;
59189;SDS011;50749;51.636;4.948;2022-12-29T05:12:32;1.52;;;0.55;;
59189;SDS011;50749;51.636;4.948;2022-12-29T05:15:00;0.80;;;0.47;;
59189;SDS011;50749;51.636;4.948;2022-12-29T05:17:28;1.13;;;0.40;;
59189;SDS011;50749;51.636;4.948;2022-12-29T05:19:54;2.65;;;0.60;;
59189;SDS011;50749;51.636;4.948;2022-12-29T05:22:20;0.75;;;0.30;;
59189;SDS011;50749;51.636;4.948;2022-12-29T05:24:46;1.35;;;1.00;;
59189;SDS011;50749;51.636;4.948;2022-12-29T05:27:12;2.40;;;0.52;;
59189;SDS011;50749;51.636;4.948;2022-12-29T05:29:38;1.25;;;0.30;;
59189;SDS011;50749;51.636;4.948;2022-12-29T05:32:03;1.02;;;0.43;;
59189;SDS011;50749;51.636;4.948;2022-12-29T05:34:29;1.75;;;0.63;;
59189;SDS011;50749;51.636;4.948;2022-12-29T05:36:55;0.82;;;0.43;;
59189;SDS011;50749;51.636;4.948;2022-12-29T05:39:21;1.20;;;0.47;;
59189;SDS011;50749;51.636;4.948;2022-12-29T05:41:47;1.05;;;0.45;;
59189;SDS011;50749;51.636;4.948;2022-12-29T05:44:13;1.63;;;0.65;;
59189;SDS011;50749;51.636;4.948;2022-12-29T05:46:39;1.58;;;0.50;;
59189;SDS011;50749;51.636;4.948;2022-12-29T05:49:05;0.40;;;0.30;;
59189;SDS011;50749;51.636;4.948;2022-12-29T05:51:31;1.23;;;0.50;;
59189;SDS011;50749;51.636;4.948;2022-12-29T05:53:57;1.35;;;0.40;;
59189;SDS011;50749;51.636;4.948;2022-12-29T05:56:23;1.30;;;0.45;;
59189;SDS011;50749;51.636;4.948;2022-12-29T05:58:49;0.45;;;0.30;;
59189;SDS011;50749;51.636;4.948;2022-12-29T06:01:14;0.93;;;0.40;;
59189;SDS011;50749;51.636;4.948;2022-12-29T06:03:40;0.60;;;0.30;;
59189;SDS011;50749;51.636;4.948;2022-12-29T06:06:06;1.08;;;0.38;;
59189;SDS011;50749;51.636;4.948;2022-12-29T06:08:32;2.63;;;0.80;;
59189;SDS011;50749;51.636;4.948;2022-12-29T06:10:58;1.35;;;0.50;;
59189;SDS011;50749;51.636;4.948;2022-12-29T06:13:24;1.00;;;0.40;;
59189;SDS011;50749;51.636;4.948;2022-12-29T06:15:50;0.47;;;0.20;;
59189;SDS011;50749;51.636;4.948;2022-12-29T06:18:16;2.28;;;0.50;;
59189;SDS011;50749;51.636;4.948;2022-12-29T06:20:42;1.67;;;0.50;;
59189;SDS011;50749;51.636;4.948;2022-12-29T06:23:08;1.63;;;0.47;;
59189;SDS011;50749;51.636;4.948;2022-12-29T06:25:34;2.95;;;0.68;;
59189;SDS011;50749;51.636;4.948;2022-12-29T06:28:01;2.97;;;0.85;;
59189;SDS011;50749;51.636;4.948;2022-12-29T06:30:28;1.02;;;0.40;;
59189;SDS011;50749;51.636;4.948;2022-12-29T06:32:54;0.68;;;0.30;;
59189;SDS011;50749;51.636;4.948;2022-12-29T06:35:20;1.23;;;0.38;;
59189;SDS011;50749;51.636;4.948;2022-12-29T06:37:48;0.32;;;0.20;;
59189;SDS011;50749;51.636;4.948;2022-12-29T06:40:14;1.10;;;0.30;;
59189;SDS011;50749;51.636;4.948;2022-12-29T06:42:40;1.88;;;0.47;;
59189;SDS011;50749;51.636;4.948;2022-12-29T06:45:06;2.15;;;0.80;;
59189;SDS011;50749;51.636;4.948;2022-12-29T06:47:33;0.90;;;0.30;;
59189;SDS011;50749;51.636;4.948;2022-12-29T06:50:00;1.60;;;0.40;;
59189;SDS011;50749;51.636;4.948;2022-12-29T06:52:26;1.40;;;0.43;;
59189;SDS011;50749;51.636;4.948;2022-12-29T06:54:54;2.72;;;0.80;;
59189;SDS011;50749;51.636;4.948;2022-12-29T06:57:20;1.70;;;0.40;;
59189;SDS011;50749;51.636;4.948;2022-12-29T06:59:46;3.60;;;0.50;;
59189;SDS011;50749;51.636;4.948;2022-12-29T07:02:12;2.60;;;0.55;;
59189;SDS011;50749;51.636;4.948;2022-12-29T07:04:44;1.98;;;0.40;;
59189;SDS011;50749;51.636;4.948;2022-12-29T07:07:10;1.75;;;0.60;;
59189;SDS011;50749;51.636;4.948;2022-12-29T07:09:36;3.80;;;0.77;;
59189;SDS011;50749;51.636;4.948;2022-12-29T07:12:02;1.48;;;0.40;;
59189;SDS011;50749;51.636;4.948;2022-12-29T07:14:28;3.85;;;0.57;;
59189;SDS011;50749;51.636;4.948;2022-12-29T07:16:54;1.75;;;0.40;;
59189;SDS011;50749;51.636;4.948;2022-12-29T07:19:19;1.83;;;0.40;;
59189;SDS011;50749;51.636;4.948;2022-12-29T07:21:46;1.55;;;0.30;;
59189;SDS011;50749;51.636;4.948;2022-12-29T07:24:11;1.80;;;0.57;;
59189;SDS011;50749;51.636;4.948;2022-12-29T07:26:37;1.00;;;0.40;;
59189;SDS011;50749;51.636;4.948;2022-12-29T07:29:03;1.40;;;0.45;;
59189;SDS011;50749;51.636;4.948;2022-12-29T07:31:30;2.30;;;0.65;;
59189;SDS011;50749;51.636;4.948;2022-12-29T07:33:55;0.80;;;0.32;;
59189;SDS011;50749;51.636;4.948;2022-12-29T07:36:21;2.45;;;0.60;;
59189;SDS011;50749;51.636;4.948;2022-12-29T07:38:47;2.33;;;0.50;;
59189;SDS011;50749;51.636;4.948;2022-12-29T07:41:13;4.10;;;0.70;;
59189;SDS011;50749;51.636;4.948;2022-12-29T07:43:39;0.95;;;0.40;;
59189;SDS011;50749;51.636;4.948;2022-12-29T07:46:05;2.78;;;0.65;;
59189;SDS011;50749;51.636;4.948;2022-12-29T07:48:30;2.00;;;0.55;;
59189;SDS011;50749;51.636;4.948;2022-12-29T07:50:59;2.58;;;0.60;;
59189;SDS011;50749;51.636;4.948;2022-12-29T07:53:24;2.83;;;0.75;;
59189;SDS011;50749;51.636;4.948;2022-12-29T07:55:50;3.03;;;0.57;;
59189;SDS011;50749;51.636;4.948;2022-12-29T07:58:16;1.55;;;0.68;;
59189;SDS011;50749;51.636;4.948;2022-12-29T08:00:42;3.58;;;0.75;;
59189;SDS011;50749;51.636;4.948;2022-12-29T08:03:07;0.85;;;0.43;;
59189;SDS011;50749;51.636;4.948;2022-12-29T08:05:34;1.77;;;0.50;;
59189;SDS011;50749;51.636;4.948;2022-12-29T08:07:59;1.80;;;0.50;;
59189;SDS011;50749;51.636;4.948;2022-12-29T08:10:25;4.00;;;0.90;;
59189;SDS011;50749;51.636;4.948;2022-12-29T08:12:51;2.38;;;0.60;;
59189;SDS011;50749;51.636;4.948;2022-12-29T08:15:17;3.33;;;0.70;;
59189;SDS011;50749;51.636;4.948;2022-12-29T08:17:43;1.70;;;0.50;;
59189;SDS011;50749;51.636;4.948;2022-12-29T08:20:09;3.22;;;0.90;;
59189;SDS011;50749;51.636;4.948;2022-12-29T08:22:35;3.40;;;0.68;;
59189;SDS011;50749;51.636;4.948;2022-12-29T08:25:02;2.65;;;0.40;;
59189;SDS011;50749;51.636;4.948;2022-12-29T08:27:28;2.88;;;0.70;;
59189;SDS011;50749;51.636;4.948;2022-12-29T08:29:54;2.90;;;0.55;;
59189;SDS011;50749;51.636;4.948;2022-12-29T08:32:20;2.88;;;0.80;;
59189;SDS011;50749;51.636;4.948;2022-12-29T08:34:46;2.28;;;0.43;;
59189;SDS011;50749;51.636;4.948;2022-12-29T08:37:11;5.22;;;0.70;;
59189;SDS011;50749;51.636;4.948;2022-12-29T08:39:37;3.55;;;0.60;;
59189;SDS011;50749;51.636;4.948;2022-12-29T08:42:03;3.47;;;0.60;;
59189;SDS011;50749;51.636;4.948;2022-12-29T08:44:29;3.83;;;0.70;;
59189;SDS011;50749;51.636;4.948;2022-12-29T08:46:55;3.53;;;0.60;;
59189;SDS011;50749;51.636;4.948;2022-12-29T08:49:21;1.15;;;0.35;;
59189;SDS011;50749;51.636;4.948;2022-12-29T08:51:46;2.72;;;0.77;;
59189;SDS011;50749;51.636;4.948;2022-12-29T08:54:12;5.70;;;2.65;;
59189;SDS011;50749;51.636;4.948;2022-12-29T08:56:38;1.75;;;0.57;;
59189;SDS011;50749;51.636;4.948;2022-12-29T08:59:04;3.42;;;0.47;;
59189;SDS011;50749;51.636;4.948;2022-12-29T09:01:30;4.35;;;1.15;;
59189;SDS011;50749;51.636;4.948;2022-12-29T09:03:56;2.58;;;0.35;;
59189;SDS011;50749;51.636;4.948;2022-12-29T09:06:22;3.78;;;0.63;;
59189;SDS011;50749;51.636;4.948;2022-12-29T09:08:48;1.88;;;0.60;;
59189;SDS011;50749;51.636;4.948;2022-12-29T09:11:18;2.40;;;0.80;;
59189;SDS011;50749;51.636;4.948;2022-12-29T09:13:45;4.43;;;1.05;;
59189;SDS011;50749;51.636;4.948;2022-12-29T09:16:12;2.50;;;0.60;;
59189;SDS011;50749;51.636;4.948;2022-12-29T09:18:38;3.75;;;0.80;;
59189;SDS011;50749;51.636;4.948;2022-12-29T09:21:04;4.03;;;0.73;;
59189;SDS011;50749;51.636;4.948;2022-12-29T09:23:32;3.35;;;0.73;;
59189;SDS011;50749;51.636;4.948;2022-12-29T09:25:59;4.45;;;0.80;;
59189;SDS011;50749;51.636;4.948;2022-12-29T09:28:25;1.77;;;0.55;;
59189;SDS011;50749;51.636;4.948;2022-12-29T09:30:51;3.50;;;0.82;;
59189;SDS011;50749;51.636;4.948;2022-12-29T09:33:17;1.95;;;0.55;;
59189;SDS011;50749;51.636;4.948;2022-12-29T09:35:43;3.03;;;0.70;;
59189;SDS011;50749;51.636;4.948;2022-12-29T09:38:11;2.47;;;0.50;;
59189;SDS011;50749;51.636;4.948;2022-12-29T09:40:37;3.67;;;0.70;;
59189;SDS011;50749;51.636;4.948;2022-12-29T09:45:59;2.92;;;0.90;;
59189;SDS011;50749;51.636;4.948;2022-12-29T09:48:36;2.17;;;0.45;;
59189;SDS011;50749;51.636;4.948;2022-12-29T09:51:10;2.50;;;0.73;;
59189;SDS011;50749;51.636;4.948;2022-12-29T09:53:46;5.38;;;1.00;;
59189;SDS011;50749;51.636;4.948;2022-12-29T09:56:22;1.70;;;0.68;;
59189;SDS011;50749;51.636;4.948;2022-12-29T09:59:04;2.83;;;0.73;;
59189;SDS011;50749;51.636;4.948;2022-12-29T10:01:36;3.95;;;0.77;;
59189;SDS011;50749;51.636;4.948;2022-12-29T10:04:11;2.88;;;0.55;;
59189;SDS011;50749;51.636;4.948;2022-12-29T10:09:14;3.67;;;0.70;;
59189;SDS011;50749;51.636;4.948;2022-12-29T10:28:01;4.65;;;1.10;;
59189;SDS011;50749;51.636;4.948;2022-12-29T10:30:37;4.72;;;0.88;;
59189;SDS011;50749;51.636;4.948;2022-12-29T10:33:07;4.90;;;0.70;;
59189;SDS011;50749;51.636;4.948;2022-12-29T10:35:41;3.08;;;0.65;;
59189;SDS011;50749;51.636;4.948;2022-12-29T10:41:18;3.67;;;0.57;;
59189;SDS011;50749;51.636;4.948;2022-12-29T10:43:57;4.80;;;1.13;;
59189;SDS011;50749;51.636;4.948;2022-12-29T10:46:28;4.95;;;1.30;;
59189;SDS011;50749;51.636;4.948;2022-12-29T10:48:58;3.17;;;0.75;;
59189;SDS011;50749;51.636;4.948;2022-12-29T10:51:29;2.00;;;0.40;;
59189;SDS011;50749;51.636;4.948;2022-12-29T10:59:01;4.85;;;0.70;;
59189;SDS011;50749;51.636;4.948;2022-12-29T11:01:37;6.35;;;1.27;;
59189;SDS011;50749;51.636;4.948;2022-12-29T11:06:56;3.55;;;0.70;;
59189;SDS011;50749;51.636;4.948;2022-12-29T11:09:24;2.10;;;0.70;;
59189;SDS011;50749;51.636;4.948;2022-12-29T11:11:55;1.70;;;0.70;;
59189;SDS011;50749;51.636;4.948;2022-12-29T11:14:25;2.58;;;1.08;;
59189;SDS011;50749;51.636;4.948;2022-12-29T11:17:03;3.17;;;1.10;;
59189;SDS011;50749;51.636;4.948;2022-12-29T11:19:30;5.70;;;0.73;;
59189;SDS011;50749;51.636;4.948;2022-12-29T11:24:54;5.22;;;0.98;;
59189;SDS011;50749;51.636;4.948;2022-12-29T11:27:31;3.22;;;0.82;;
59189;SDS011;50749;51.636;4.948;2022-12-29T11:29:58;2.58;;;0.52;;
59189;SDS011;50749;51.636;4.948;2022-12-29T11:32:27;2.80;;;0.88;;
59189;SDS011;50749;51.636;4.948;2022-12-29T11:34:57;3.47;;;1.05;;
59189;SDS011;50749;51.636;4.948;2022-12-29T11:42:48;4.63;;;1.20;;
59189;SDS011;50749;51.636;4.948;2022-12-29T11:45:19;3.00;;;1.00;;
59189;SDS011;50749;51.636;4.948;2022-12-29T11:47:49;3.58;;;0.90;;
59189;SDS011;50749;51.636;4.948;2022-12-29T11:50:19;1.73;;;0.70;;
59189;SDS011;50749;51.636;4.948;2022-12-29T11:52:48;3.58;;;0.90;;
59189;SDS011;50749;51.636;4.948;2022-12-29T11:55:20;3.25;;;1.00;;
59189;SDS011;50749;51.636;4.948;2022-12-29T11:57:50;9.43;;;1.10;;
59189;SDS011;50749;51.636;4.948;2022-12-29T12:00:18;4.93;;;0.82;;
59189;SDS011;50749;51.636;4.948;2022-12-29T12:05:55;5.00;;;0.90;;
59189;SDS011;50749;51.636;4.948;2022-12-29T12:13:59;4.03;;;1.05;;
59189;SDS011;50749;51.636;4.948;2022-12-29T12:16:46;3.13;;;0.80;;
59189;SDS011;50749;51.636;4.948;2022-12-29T12:25:02;8.30;;;1.38;;
59189;SDS011;50749;51.636;4.948;2022-12-29T12:27:41;3.78;;;1.13;;
59189;SDS011;50749;51.636;4.948;2022-12-29T12:30:20;2.42;;;0.93;;
59189;SDS011;50749;51.636;4.948;2022-12-29T12:32:56;3.47;;;1.10;;
59189;SDS011;50749;51.636;4.948;2022-12-29T12:48:55;4.45;;;0.90;;
59189;SDS011;50749;51.636;4.948;2022-12-29T12:57:16;4.50;;;1.45;;
59189;SDS011;50749;51.636;4.948;2022-12-29T13:02:34;4.25;;;1.20;;
59189;SDS011;50749;51.636;4.948;2022-12-29T13:12:55;2.45;;;1.02;;
59189;SDS011;50749;51.636;4.948;2022-12-29T13:18:37;3.30;;;1.15;;
59189;SDS011;50749;51.636;4.948;2022-12-29T13:21:41;3.30;;;0.90;;
59189;SDS011;50749;51.636;4.948;2022-12-29T13:24:32;5.10;;;1.00;;
59189;SDS011;50749;51.636;4.948;2022-12-29T13:41:24;3.95;;;0.77;;
59189;SDS011;50749;51.636;4.948;2022-12-29T13:44:02;2.58;;;0.75;;
59189;SDS011;50749;51.636;4.948;2022-12-29T13:46:33;2.40;;;0.85;;
59189;SDS011;50749;51.636;4.948;2022-12-29T13:49:07;1.63;;;0.50;;
59189;SDS011;50749;51.636;4.948;2022-12-29T13:51:43;4.03;;;0.77;;
59189;SDS011;50749;51.636;4.948;2022-12-29T13:54:34;2.58;;;0.75;;
59189;SDS011;50749;51.636;4.948;2022-12-29T13:57:32;2.75;;;0.93;;
59189;SDS011;50749;51.636;4.948;2022-12-29T14:00:27;2.95;;;0.60;;
59189;SDS011;50749;51.636;4.948;2022-12-29T14:03:20;1.65;;;0.50;;
59189;SDS011;50749;51.636;4.948;2022-12-29T14:05:45;3.35;;;0.68;;
59189;SDS011;50749;51.636;4.948;2022-12-29T14:08:27;1.20;;;0.45;;
59189;SDS011;50749;51.636;4.948;2022-12-29T14:10:53;2.80;;;0.93;;
59189;SDS011;50749;51.636;4.948;2022-12-29T14:13:20;3.03;;;0.85;;
59189;SDS011;50749;51.636;4.948;2022-12-29T14:15:52;4.25;;;0.80;;
59189;SDS011;50749;51.636;4.948;2022-12-29T14:18:33;3.28;;;0.85;;
59189;SDS011;50749;51.636;4.948;2022-12-29T14:21:11;3.55;;;0.90;;
59189;SDS011;50749;51.636;4.948;2022-12-29T14:23:49;3.75;;;0.90;;
59189;SDS011;50749;51.636;4.948;2022-12-29T14:29:15;1.92;;;0.60;;
59189;SDS011;50749;51.636;4.948;2022-12-29T14:32:00;2.22;;;0.63;;
59189;SDS011;50749;51.636;4.948;2022-12-29T14:34:27;2.95;;;0.75;;
59189;SDS011;50749;51.636;4.948;2022-12-29T14:37:01;2.22;;;0.75;;
59189;SDS011;50749;51.636;4.948;2022-12-29T14:42:04;2.22;;;0.60;;
59189;SDS011;50749;51.636;4.948;2022-12-29T14:44:31;1.63;;;0.60;;
59189;SDS011;50749;51.636;4.948;2022-12-29T14:46:58;3.78;;;0.75;;
59189;SDS011;50749;51.636;4.948;2022-12-29T14:49:31;5.75;;;1.10;;
59189;SDS011;50749;51.636;4.948;2022-12-29T14:52:06;3.03;;;0.80;;
59189;SDS011;50749;51.636;4.948;2022-12-29T14:54:46;3.30;;;0.70;;
59189;SDS011;50749;51.636;4.948;2022-12-29T14:59:53;2.33;;;0.70;;
59189;SDS011;50749;51.636;4.948;2022-12-29T15:02:24;1.25;;;0.60;;
59189;SDS011;50749;51.636;4.948;2022-12-29T15:04:58;3.65;;;0.50;;
59189;SDS011;50749;51.636;4.948;2022-12-29T15:07:27;3.47;;;0.80;;
59189;SDS011;50749;51.636;4.948;2022-12-29T15:09:57;4.63;;;1.00;;
59189;SDS011;50749;51.636;4.948;2022-12-29T15:12:32;2.58;;;0.88;;
59189;SDS011;50749;51.636;4.948;2022-12-29T15:15:16;1.33;;;0.60;;
59189;SDS011;50749;51.636;4.948;2022-12-29T15:17:44;4.78;;;1.00;;
59189;SDS011;50749;51.636;4.948;2022-12-29T15:22:44;3.35;;;0.95;;
59189;SDS011;50749;51.636;4.948;2022-12-29T15:25:17;10.65;;;2.35;;
59189;SDS011;50749;51.636;4.948;2022-12-29T15:27:48;7.43;;;1.80;;
59189;SDS011;50749;51.636;4.948;2022-12-29T15:30:18;11.05;;;2.30;;
59189;SDS011;50749;51.636;4.948;2022-12-29T15:32:45;12.63;;;2.25;;
59189;SDS011;50749;51.636;4.948;2022-12-29T15:37:53;7.30;;;1.98;;
59189;SDS011;50749;51.636;4.948;2022-12-29T15:40:29;7.43;;;1.85;;
59189;SDS011;50749;51.636;4.948;2022-12-29T15:45:26;10.25;;;2.45;;
59189;SDS011;50749;51.636;4.948;2022-12-29T15:47:58;7.55;;;1.73;;
59189;SDS011;50749;51.636;4.948;2022-12-29T15:50:26;4.85;;;1.92;;
59189;SDS011;50749;51.636;4.948;2022-12-29T15:52:53;9.30;;;2.45;;
59189;SDS011;50749;51.636;4.948;2022-12-29T15:55:21;6.15;;;1.60;;
59189;SDS011;50749;51.636;4.948;2022-12-29T15:58:01;7.53;;;2.40;;
59189;SDS011;50749;51.636;4.948;2022-12-29T16:00:32;6.07;;;1.63;;
59189;SDS011;50749;51.636;4.948;2022-12-29T16:03:01;5.90;;;1.50;;
59189;SDS011;50749;51.636;4.948;2022-12-29T16:05:34;7.78;;;1.77;;
59189;SDS011;50749;51.636;4.948;2022-12-29T16:08:02;6.75;;;1.67;;
59189;SDS011;50749;51.636;4.948;2022-12-29T16:10:42;6.43;;;1.40;;
59189;SDS011;50749;51.636;4.948;2022-12-29T16:13:54;7.13;;;1.38;;
59189;SDS011;50749;51.636;4.948;2022-12-29T16:16:06;3.63;;;1.10;;
59189;SDS011;50749;51.636;4.948;2022-12-29T16:18:38;14.50;;;1.77;;
59189;SDS011;50749;51.636;4.948;2022-12-29T16:21:05;4.13;;;1.17;;
59189;SDS011;50749;51.636;4.948;2022-12-29T16:23:40;5.55;;;1.50;;
59189;SDS011;50749;51.636;4.948;2022-12-29T16:26:18;6.68;;;1.52;;
59189;SDS011;50749;51.636;4.948;2022-12-29T16:28:47;6.88;;;1.20;;
59189;SDS011;50749;51.636;4.948;2022-12-29T16:31:21;5.47;;;0.98;;
59189;SDS011;50749;51.636;4.948;2022-12-29T16:33:54;4.68;;;1.20;;
59189;SDS011;50749;51.636;4.948;2022-12-29T16:36:38;8.45;;;1.60;;
59189;SDS011;50749;51.636;4.948;2022-12-29T16:41:52;5.40;;;1.42;;
59189;SDS011;50749;51.636;4.948;2022-12-29T16:44:22;3.47;;;1.17;;
59189;SDS011;50749;51.636;4.948;2022-12-29T16:47:05;4.55;;;1.17;;
59189;SDS011;50749;51.636;4.948;2022-12-29T16:52:11;2.55;;;1.00;;
59189;SDS011;50749;51.636;4.948;2022-12-29T16:54:58;7.72;;;1.30;;
59189;SDS011;50749;51.636;4.948;2022-12-29T16:57:32;3.25;;;0.95;;
59189;SDS011;50749;51.636;4.948;2022-12-29T17:00:04;10.43;;;1.38;;
59189;SDS011;50749;51.636;4.948;2022-12-29T17:02:32;2.25;;;0.93;;
59189;SDS011;50749;51.636;4.948;2022-12-29T17:05:13;4.63;;;1.23;;
59189;SDS011;50749;51.636;4.948;2022-12-29T17:07:40;4.53;;;0.90;;
59189;SDS011;50749;51.636;4.948;2022-12-29T17:10:06;2.83;;;0.98;;
59189;SDS011;50749;51.636;4.948;2022-12-29T17:12:33;2.03;;;0.90;;
59189;SDS011;50749;51.636;4.948;2022-12-29T17:15:03;6.63;;;1.15;;
59189;SDS011;50749;51.636;4.948;2022-12-29T17:17:40;3.63;;;1.10;;
59189;SDS011;50749;51.636;4.948;2022-12-29T17:20:14;4.20;;;0.90;;
59189;SDS011;50749;51.636;4.948;2022-12-29T17:22:40;5.93;;;1.08;;
59189;SDS011;50749;51.636;4.948;2022-12-29T17:25:08;3.95;;;1.33;;
59189;SDS011;50749;51.636;4.948;2022-12-29T17:27:40;6.32;;;0.93;;
59189;SDS011;50749;51.636;4.948;2022-12-29T17:32:42;1.92;;;0.73;;
59189;SDS011;50749;51.636;4.948;2022-12-29T17:35:14;8.25;;;1.02;;
59189;SDS011;50749;51.636;4.948;2022-12-29T17:37:42;2.13;;;1.02;;
59189;SDS011;50749;51.636;4.948;2022-12-29T17:40:15;4.60;;;1.20;;
59189;SDS011;50749;51.636;4.948;2022-12-29T17:42:46;5.93;;;1.10;;
59189;SDS011;50749;51.636;4.948;2022-12-29T17:45:20;6.32;;;1.85;;
59189;SDS011;50749;51.636;4.948;2022-12-29T17:47:49;6.00;;;1.63;;
59189;SDS011;50749;51.636;4.948;2022-12-29T17:50:16;5.20;;;1.92;;
59189;SDS011;50749;51.636;4.948;2022-12-29T17:52:50;8.00;;;1.85;;